createdAt,value
2023-06-04T00:01:17.127Z,6.40
2023-06-04T00:03:44.613Z,6.25
2023-06-04T00:06:11.496Z,6.97
2023-06-04T00:08:38.248Z,5.95
2023-06-04T00:11:05.252Z,6.32
2023-06-04T00:13:32.326Z,5.97
2023-06-04T00:15:59.046Z,5.88
2023-06-04T00:18:25.784Z,6.32
2023-06-04T00:20:52.504Z,7.13
2023-06-04T00:23:19.303Z,5.80
2023-06-04T00:25:46.490Z,6.13
2023-06-04T00:28:13.188Z,5.97
2023-06-04T00:30:39.906Z,6.70
2023-06-04T00:33:06.677Z,6.35
2023-06-04T00:35:33.764Z,5.72
2023-06-04T00:38:00.485Z,6.10
2023-06-04T00:40:27.176Z,5.63
2023-06-04T00:42:53.870Z,6.03
2023-06-04T00:45:21.287Z,6.20
2023-06-04T00:47:48.435Z,5.90
2023-06-04T00:50:15.365Z,6.22
2023-06-04T00:52:42.550Z,6.72
2023-06-04T00:55:10.354Z,5.55
2023-06-04T00:57:38.462Z,5.97
2023-06-04T01:00:06.979Z,5.63
2023-06-04T01:02:36.537Z,6.38
2023-06-04T01:05:41.792Z,5.50
2023-06-04T01:08:10.539Z,6.07
2023-06-04T01:10:37.640Z,6.45
2023-06-04T01:13:04.307Z,6.07
2023-06-04T01:15:30.965Z,5.68
2023-06-04T01:18:04.623Z,6.35
2023-06-04T01:20:39.049Z,7.15
2023-06-04T01:23:25.030Z,6.93
2023-06-04T01:25:52.861Z,6.65
2023-06-04T01:28:21.782Z,6.70
2023-06-04T01:30:49.571Z,6.93
2023-06-04T01:33:18.683Z,7.03
2023-06-04T01:35:45.867Z,6.60
2023-06-04T01:38:12.701Z,6.35
2023-06-04T01:40:39.495Z,5.97
2023-06-04T01:43:06.259Z,6.18
2023-06-04T01:45:33.343Z,6.47
2023-06-04T01:48:03.530Z,6.45
2023-06-04T01:50:31.502Z,5.80
2023-06-04T01:52:58.579Z,5.88
2023-06-04T01:55:30.644Z,6.18
2023-06-04T01:57:57.306Z,6.93
2023-06-04T02:00:24.014Z,6.53
2023-06-04T02:02:50.956Z,6.35
2023-06-04T02:05:17.870Z,6.50
2023-06-04T02:07:46.123Z,6.40
2023-06-04T02:10:15.477Z,6.53
2023-06-04T02:12:54.116Z,6.60
2023-06-04T02:15:20.943Z,6.30
2023-06-04T02:17:48.815Z,6.57
2023-06-04T02:20:16.114Z,6.82
2023-06-04T02:22:42.932Z,6.28
2023-06-04T02:25:10.296Z,6.38
2023-06-04T02:27:37.087Z,6.93
2023-06-04T02:30:04.985Z,6.13
2023-06-04T02:32:31.822Z,7.10
2023-06-04T02:34:58.684Z,6.82
2023-06-04T02:37:25.536Z,6.28
2023-06-04T02:39:52.222Z,6.18
2023-06-04T02:42:19.806Z,6.65
2023-06-04T02:44:46.747Z,7.13
2023-06-04T02:47:13.523Z,6.38
2023-06-04T02:49:40.301Z,5.88
2023-06-04T02:52:07.492Z,6.80
2023-06-04T02:54:34.126Z,6.38
2023-06-04T02:57:01.082Z,6.40
2023-06-04T02:59:27.796Z,5.93
2023-06-04T03:01:55.106Z,6.63
2023-06-04T03:04:22.095Z,6.82
2023-06-04T03:06:48.802Z,6.53
2023-06-04T03:09:15.517Z,6.40
2023-06-04T03:11:42.195Z,6.90
2023-06-04T03:14:08.926Z,5.90
2023-06-04T03:16:35.574Z,6.18
2023-06-04T03:19:02.535Z,6.88
2023-06-04T03:21:30.269Z,6.35
2023-06-04T03:23:57.291Z,6.57
2023-06-04T03:26:24.076Z,6.32
2023-06-04T03:28:51.302Z,6.85
2023-06-04T03:31:18.172Z,6.55
2023-06-04T03:33:44.904Z,6.68
2023-06-04T03:36:11.611Z,6.75
2023-06-04T03:38:38.329Z,6.32
2023-06-04T03:41:05.260Z,6.90
2023-06-04T03:43:32.083Z,6.97
2023-06-04T03:45:58.773Z,7.30
2023-06-04T03:48:25.568Z,7.00
2023-06-04T03:50:52.303Z,6.43
2023-06-04T03:53:19.060Z,6.60
2023-06-04T03:55:45.789Z,6.53
2023-06-04T03:58:12.948Z,6.93
2023-06-04T04:00:39.668Z,6.53
2023-06-04T04:03:09.014Z,6.68
2023-06-04T04:05:36.866Z,6.70
2023-06-04T04:08:04.244Z,5.82
2023-06-04T04:10:31.479Z,6.47
2023-06-04T04:12:59.479Z,6.85
2023-06-04T04:15:26.488Z,6.35
2023-06-04T04:17:53.775Z,6.35
2023-06-04T04:20:20.734Z,6.68
2023-06-04T04:22:49.158Z,6.65
2023-06-04T04:25:17.279Z,6.75
2023-06-04T04:27:44.073Z,6.20
2023-06-04T04:30:11.479Z,7.05
2023-06-04T04:32:39.968Z,6.93
2023-06-04T04:35:08.556Z,6.57
2023-06-04T04:37:39.804Z,6.25
2023-06-04T04:40:10.613Z,6.70
2023-06-04T04:42:37.679Z,6.68
2023-06-04T04:45:05.341Z,7.00
2023-06-04T04:47:32.090Z,6.13
2023-06-04T04:49:58.861Z,6.95
2023-06-04T04:52:25.696Z,7.15
2023-06-04T04:54:56.505Z,6.80
2023-06-04T04:57:23.746Z,6.60
2023-06-04T04:59:50.903Z,5.80
2023-06-04T05:02:17.727Z,7.10
2023-06-04T05:04:44.576Z,6.68
2023-06-04T05:07:11.392Z,7.75
2023-06-04T05:09:38.239Z,6.45
2023-06-04T05:12:05.136Z,6.97
2023-06-04T05:14:32.610Z,6.40
2023-06-04T05:16:59.375Z,6.00
2023-06-04T05:19:26.047Z,6.22
2023-06-04T05:21:52.689Z,6.13
2023-06-04T05:24:19.395Z,5.00
2023-06-04T05:26:46.044Z,6.57
2023-06-04T05:29:12.838Z,6.05
2023-06-04T05:31:41.119Z,6.20
2023-06-04T05:34:07.976Z,5.75
2023-06-04T05:36:34.816Z,6.32
2023-06-04T05:39:01.558Z,5.75
2023-06-04T05:41:28.989Z,5.88
2023-06-04T05:43:56.226Z,5.80
2023-06-04T05:46:23.261Z,5.35
2023-06-04T05:48:50.207Z,5.82
2023-06-04T05:51:16.906Z,5.75
2023-06-04T05:53:43.594Z,7.60
2023-06-04T05:56:10.332Z,5.95
2023-06-04T05:58:37.284Z,5.43
2023-06-04T06:01:04.347Z,5.65
2023-06-04T06:03:31.324Z,6.50
2023-06-04T06:06:00.948Z,6.88
2023-06-04T06:08:27.970Z,6.00
2023-06-04T06:10:54.900Z,6.97
2023-06-04T06:13:21.623Z,5.90
2023-06-04T06:15:51.668Z,7.25
2023-06-04T06:18:18.440Z,6.28
2023-06-04T06:20:45.325Z,6.88
2023-06-04T06:23:12.093Z,6.15
2023-06-04T06:25:41.406Z,8.07
2023-06-04T06:28:08.459Z,7.30
2023-06-04T06:30:35.324Z,7.30
2023-06-04T06:33:02.089Z,6.75
2023-06-04T06:35:28.830Z,6.03
2023-06-04T06:37:55.827Z,7.22
2023-06-04T06:40:22.502Z,6.22
2023-06-04T06:42:51.114Z,5.97
2023-06-04T06:45:21.825Z,5.63
2023-06-04T06:47:48.692Z,5.18
2023-06-04T06:50:15.515Z,5.57
2023-06-04T06:52:42.529Z,5.70
2023-06-04T06:55:09.443Z,5.47
2023-06-04T06:57:36.124Z,5.40
2023-06-04T07:00:04.177Z,5.25
2023-06-04T07:02:30.969Z,5.45
2023-06-04T07:04:57.968Z,5.32
2023-06-04T07:07:24.906Z,5.57
2023-06-04T07:09:51.990Z,4.82
2023-06-04T07:12:18.773Z,5.20
2023-06-04T07:14:46.185Z,5.25
2023-06-04T07:17:12.904Z,4.85
2023-06-04T07:19:39.667Z,5.05
2023-06-04T07:22:06.474Z,5.20
2023-06-04T07:24:33.196Z,5.53
2023-06-04T07:26:59.984Z,5.25
2023-06-04T07:29:26.761Z,5.88
2023-06-04T07:31:53.585Z,6.03
2023-06-04T07:34:20.541Z,5.47
2023-06-04T07:36:48.195Z,5.80
2023-06-04T07:39:14.945Z,5.53
2023-06-04T07:41:41.620Z,6.38
2023-06-04T07:44:08.282Z,6.10
2023-06-04T07:46:35.078Z,5.57
2023-06-04T07:49:01.823Z,6.30
2023-06-04T07:51:28.508Z,6.40
2023-06-04T07:53:55.172Z,6.32
2023-06-04T07:56:21.863Z,5.72
2023-06-04T07:58:48.993Z,5.70
2023-06-04T08:01:16.655Z,5.82
2023-06-04T08:03:43.518Z,5.85
2023-06-04T08:06:11.000Z,5.97
2023-06-04T08:08:37.887Z,5.80
2023-06-04T08:11:04.784Z,6.20
2023-06-04T08:13:31.596Z,5.63
2023-06-04T08:15:58.363Z,4.28
2023-06-04T08:18:25.031Z,5.85
2023-06-04T08:20:52.421Z,4.82
2023-06-04T08:23:19.154Z,4.75
2023-06-04T08:25:46.041Z,5.15
2023-06-04T08:28:15.071Z,4.90
2023-06-04T08:30:42.082Z,4.60
2023-06-04T08:33:10.483Z,4.15
2023-06-04T08:35:38.722Z,5.00
2023-06-04T08:38:05.516Z,5.65
2023-06-04T08:40:32.235Z,4.97
2023-06-04T08:43:00.741Z,4.63
2023-06-04T08:45:28.056Z,4.65
2023-06-04T08:47:55.583Z,4.85
2023-06-04T08:50:24.899Z,4.38
2023-06-04T08:52:57.059Z,5.00
2023-06-04T08:55:24.216Z,5.55
2023-06-04T08:57:54.393Z,4.97
2023-06-04T09:00:21.514Z,5.30
2023-06-04T09:02:48.915Z,5.72
2023-06-04T09:05:21.868Z,5.57
2023-06-04T09:07:52.332Z,5.07
2023-06-04T09:10:21.964Z,5.38
2023-06-04T09:12:50.282Z,5.10
2023-06-04T09:15:16.944Z,4.85
2023-06-04T09:17:43.759Z,4.80
2023-06-04T09:20:23.467Z,4.95
2023-06-04T09:22:50.300Z,4.80
2023-06-04T09:25:26.603Z,4.65
2023-06-04T09:28:06.985Z,4.50
2023-06-04T09:30:33.695Z,3.90
2023-06-04T09:33:10.645Z,4.15
2023-06-04T09:35:37.583Z,3.53
2023-06-04T09:38:06.498Z,3.92
2023-06-04T09:40:38.361Z,3.78
2023-06-04T09:43:05.518Z,4.05
2023-06-04T09:45:34.031Z,4.30
2023-06-04T09:48:02.038Z,4.05
2023-06-04T09:50:32.203Z,4.63
2023-06-04T09:52:58.923Z,4.88
2023-06-04T09:55:26.187Z,3.92
2023-06-04T09:57:54.467Z,4.07
2023-06-04T10:00:23.773Z,4.00
2023-06-04T10:02:56.854Z,4.97
2023-06-04T10:05:25.903Z,4.18
2023-06-04T10:07:53.541Z,4.57
2023-06-04T10:10:27.639Z,4.78
2023-06-04T10:13:17.248Z,4.93
2023-06-04T10:15:44.484Z,4.95
2023-06-04T10:18:11.657Z,5.00
2023-06-04T10:20:39.737Z,5.07
2023-06-04T10:23:07.229Z,5.35
2023-06-04T10:25:34.057Z,5.07
2023-06-04T10:28:01.964Z,5.90
2023-06-04T10:30:29.045Z,6.15
2023-06-04T10:32:57.642Z,5.38
2023-06-04T10:35:39.527Z,5.90
2023-06-04T10:38:15.182Z,5.93
2023-06-04T10:40:42.055Z,5.95
2023-06-04T10:43:10.552Z,5.28
2023-06-04T10:45:38.160Z,4.82
2023-06-04T10:48:07.296Z,5.05
2023-06-04T10:50:35.270Z,4.85
2023-06-04T10:53:06.288Z,5.55
2023-06-04T10:55:33.252Z,5.00
2023-06-04T10:58:01.934Z,5.20
2023-06-04T11:00:39.293Z,4.90
2023-06-04T11:03:11.010Z,4.38
2023-06-04T11:05:39.716Z,5.00
2023-06-04T11:08:07.966Z,4.85
2023-06-04T11:10:36.833Z,5.22
2023-06-04T11:13:04.789Z,4.90
2023-06-04T11:15:42.902Z,5.28
2023-06-04T11:18:16.394Z,4.32
2023-06-04T11:20:44.335Z,5.00
2023-06-04T11:23:13.207Z,5.55
2023-06-04T11:25:39.902Z,5.88
2023-06-04T11:28:06.566Z,4.68
2023-06-04T11:30:33.234Z,4.63
2023-06-04T11:33:06.897Z,4.55
2023-06-04T11:35:42.665Z,5.07
2023-06-04T11:38:10.736Z,4.60
2023-06-04T11:40:37.568Z,4.70
2023-06-04T11:43:04.374Z,5.32
2023-06-04T11:45:31.417Z,4.88
2023-06-04T11:47:58.886Z,4.80
2023-06-04T11:50:30.039Z,5.32
2023-06-04T11:52:56.977Z,4.30
2023-06-04T11:55:24.212Z,4.55
2023-06-04T11:57:51.812Z,5.03
2023-06-04T12:00:20.313Z,4.38
2023-06-04T12:02:52.220Z,4.03
2023-06-04T12:05:24.136Z,4.20
2023-06-04T12:07:52.145Z,3.97
2023-06-04T12:10:20.220Z,4.57
2023-06-04T12:12:47.515Z,4.72
2023-06-04T12:15:21.095Z,5.35
2023-06-04T12:17:55.382Z,4.43
2023-06-04T12:20:37.010Z,3.90
2023-06-04T12:23:05.829Z,4.30
2023-06-04T12:25:33.837Z,4.32
2023-06-04T12:28:00.586Z,4.10
2023-06-04T12:30:40.690Z,3.95
2023-06-04T12:35:35.246Z,4.32
2023-06-04T12:38:05.117Z,4.20
2023-06-04T12:40:31.921Z,3.97
2023-06-04T12:42:58.743Z,4.43
2023-06-04T12:45:25.528Z,4.32
2023-06-04T12:47:52.324Z,4.38
2023-06-04T12:50:22.143Z,4.38
2023-06-04T12:52:49.463Z,4.57
2023-06-04T12:55:16.377Z,5.20
2023-06-04T12:57:45.587Z,3.90
2023-06-04T13:00:12.799Z,4.10
2023-06-04T13:02:39.605Z,4.40
2023-06-04T13:05:06.715Z,4.60
2023-06-04T13:07:33.550Z,4.28
2023-06-04T13:10:00.395Z,4.90
2023-06-04T13:12:27.108Z,4.07
2023-06-04T13:14:53.765Z,3.90
2023-06-04T13:17:22.468Z,3.80
2023-06-04T13:19:49.650Z,4.43
2023-06-04T13:22:16.503Z,4.22
2023-06-04T13:24:43.208Z,4.00
2023-06-04T13:27:09.872Z,3.58
2023-06-04T13:29:36.556Z,3.70
2023-06-04T13:32:03.351Z,3.80
2023-06-04T13:34:31.874Z,4.30
2023-06-04T13:36:58.549Z,4.00
2023-06-04T13:39:25.409Z,3.85
2023-06-04T13:41:52.083Z,4.20
2023-06-04T13:44:18.889Z,3.53
2023-06-04T13:46:45.676Z,3.97
2023-06-04T13:49:12.347Z,3.97
2023-06-04T13:51:39.008Z,4.15
2023-06-04T13:54:05.746Z,3.60
2023-06-04T13:56:32.462Z,3.63
2023-06-04T13:58:59.154Z,3.90
2023-06-04T14:01:25.904Z,4.03
2023-06-04T14:03:53.493Z,4.13
2023-06-04T14:06:20.538Z,4.00
2023-06-04T14:08:47.236Z,3.47
2023-06-04T14:11:13.925Z,4.32
2023-06-04T14:13:42.306Z,3.70
2023-06-04T14:16:09.093Z,3.53
2023-06-04T14:18:35.817Z,4.07
2023-06-04T14:21:02.451Z,3.72
2023-06-04T14:23:29.181Z,4.13
2023-06-04T14:25:55.853Z,3.50
2023-06-04T14:28:22.559Z,3.97
2023-06-04T14:30:49.332Z,3.60
2023-06-04T14:33:16.157Z,3.40
2023-06-04T14:35:47.692Z,3.63
2023-06-04T14:38:15.634Z,3.55
2023-06-04T14:40:44.483Z,3.25
2023-06-04T14:43:12.701Z,3.90
2023-06-04T14:45:40.701Z,3.92
2023-06-04T14:48:15.645Z,4.13
2023-06-04T14:50:43.616Z,3.42
2023-06-04T14:53:10.698Z,3.50
2023-06-04T14:55:37.907Z,3.05
2023-06-04T14:58:05.555Z,3.53
2023-06-04T15:00:33.038Z,3.80
2023-06-04T15:03:01.262Z,4.20
2023-06-04T15:05:28.178Z,3.58
2023-06-04T15:07:54.987Z,3.80
2023-06-04T15:10:21.803Z,3.50
2023-06-04T15:12:48.462Z,4.38
2023-06-04T15:15:15.149Z,3.58
2023-06-04T15:17:42.121Z,3.92
2023-06-04T15:20:09.385Z,3.83
2023-06-04T15:22:36.106Z,3.63
2023-06-04T15:25:02.843Z,3.63
2023-06-04T15:27:29.604Z,3.70
2023-06-04T15:29:56.243Z,3.67
2023-06-04T15:32:22.964Z,4.05
2023-06-04T15:34:49.656Z,3.42
2023-06-04T15:37:16.433Z,3.67
2023-06-04T15:39:43.191Z,3.95
2023-06-04T15:42:10.558Z,3.38
2023-06-04T15:44:37.184Z,3.80
2023-06-04T15:47:04.032Z,3.17
2023-06-04T15:49:31.822Z,3.20
2023-06-04T15:51:58.544Z,3.38
2023-06-04T15:54:43.993Z,3.72
2023-06-04T15:57:11.889Z,3.60
2023-06-04T15:59:38.619Z,4.57
2023-06-04T16:02:07.390Z,2.95
2023-06-04T16:04:34.299Z,3.40
2023-06-04T16:07:01.152Z,3.42
2023-06-04T16:09:29.874Z,3.20
2023-06-04T16:11:56.826Z,2.90
2023-06-04T16:14:23.787Z,3.35
2023-06-04T16:16:50.519Z,3.33
2023-06-04T16:19:17.348Z,3.78
2023-06-04T16:21:44.179Z,3.53
2023-06-04T16:24:10.984Z,3.55
2023-06-04T16:26:37.804Z,3.90
2023-06-04T16:29:05.364Z,3.63
2023-06-04T16:31:32.107Z,3.50
2023-06-04T16:33:58.828Z,3.80
2023-06-04T16:36:26.239Z,4.13
2023-06-04T16:38:52.928Z,4.15
2023-06-04T16:41:19.676Z,4.32
2023-06-04T16:43:46.534Z,4.35
2023-06-04T16:46:13.253Z,4.03
2023-06-04T16:48:40.127Z,4.32
2023-06-04T16:51:06.846Z,4.00
2023-06-04T16:53:33.598Z,4.40
2023-06-04T16:56:00.284Z,4.30
2023-06-04T16:58:26.995Z,4.50
2023-06-04T17:00:54.332Z,4.25
2023-06-04T17:03:22.529Z,4.00
2023-06-04T17:05:49.514Z,3.97
2023-06-04T17:08:16.502Z,4.28
2023-06-04T17:10:43.426Z,3.83
2023-06-04T17:13:10.228Z,3.58
2023-06-04T17:15:36.878Z,4.80
2023-06-04T17:18:05.746Z,4.53
2023-06-04T17:20:32.718Z,3.88
2023-06-04T17:23:03.494Z,3.92
2023-06-04T17:25:33.156Z,4.07
2023-06-04T17:28:00.368Z,4.22
2023-06-04T17:30:27.215Z,3.92
2023-06-04T17:32:54.190Z,4.07
2023-06-04T17:35:20.952Z,4.10
2023-06-04T17:37:47.678Z,4.53
2023-06-04T17:40:14.389Z,4.38
2023-06-04T17:42:47.339Z,4.97
2023-06-04T17:45:14.762Z,4.22
2023-06-04T17:47:41.495Z,4.32
2023-06-04T17:50:09.528Z,3.70
2023-06-04T17:52:36.411Z,4.07
2023-06-04T17:55:03.269Z,3.95
2023-06-04T17:57:31.172Z,3.83
2023-06-04T17:59:58.645Z,3.45
2023-06-04T18:02:25.849Z,4.18
2023-06-04T18:04:52.659Z,3.97
2023-06-04T18:07:21.040Z,4.13
2023-06-04T18:09:48.182Z,3.90
2023-06-04T18:12:15.350Z,4.10
2023-06-04T18:14:43.527Z,3.85
2023-06-04T18:17:10.502Z,3.22
2023-06-04T18:19:37.322Z,4.20
2023-06-04T18:22:04.514Z,3.58
2023-06-04T18:24:31.302Z,3.70
2023-06-04T18:27:00.131Z,4.63
2023-06-04T18:29:28.573Z,4.07
2023-06-04T18:31:55.553Z,4.90
2023-06-04T18:34:22.317Z,4.00
2023-06-04T18:36:53.831Z,3.72
2023-06-04T18:39:25.085Z,4.57
2023-06-04T18:41:56.190Z,4.00
2023-06-04T18:44:24.191Z,3.97
2023-06-04T18:46:51.514Z,4.18
2023-06-04T18:49:22.698Z,4.55
2023-06-04T18:51:51.655Z,4.20
2023-06-04T18:54:19.128Z,4.30
2023-06-04T18:56:46.344Z,4.57
2023-06-04T18:59:14.453Z,4.18
2023-06-04T19:01:41.318Z,4.03
2023-06-04T19:04:08.771Z,4.28
2023-06-04T19:06:36.632Z,4.55
2023-06-04T19:09:03.675Z,4.22
2023-06-04T19:11:30.525Z,4.75
2023-06-04T19:13:57.204Z,5.57
2023-06-04T19:16:24.243Z,5.55
2023-06-04T19:18:51.498Z,4.53
2023-06-04T19:21:18.479Z,4.80
2023-06-04T19:23:46.124Z,5.72
2023-06-04T19:26:12.985Z,4.32
2023-06-04T19:28:39.725Z,4.20
2023-06-04T19:31:06.462Z,4.20
2023-06-04T19:33:34.182Z,5.38
2023-06-04T19:36:01.487Z,4.30
2023-06-04T19:38:28.196Z,4.30
2023-06-04T19:40:55.406Z,4.13
2023-06-04T19:43:22.178Z,4.75
2023-06-04T19:45:51.001Z,4.57
2023-06-04T19:48:17.901Z,4.20
2023-06-04T19:50:44.629Z,4.78
2023-06-04T19:53:11.331Z,4.35
2023-06-04T19:55:38.104Z,4.70
2023-06-04T19:58:04.865Z,4.35
2023-06-04T20:00:31.910Z,4.35
2023-06-04T20:02:58.697Z,4.25
2023-06-04T20:05:25.517Z,4.53
2023-06-04T20:07:52.257Z,4.47
2023-06-04T20:10:19.573Z,4.13
2023-06-04T20:12:46.253Z,4.38
2023-06-04T20:15:12.978Z,4.40
2023-06-04T20:17:40.059Z,4.20
2023-06-04T20:20:07.780Z,4.90
2023-06-04T20:22:34.662Z,4.57
2023-06-04T20:25:01.948Z,4.35
2023-06-04T20:27:28.726Z,4.78
2023-06-04T20:29:55.477Z,4.75
2023-06-04T20:32:24.463Z,4.15
2023-06-04T20:34:51.258Z,4.88
2023-06-04T20:37:18.066Z,4.07
2023-06-04T20:39:48.553Z,4.35
2023-06-04T20:42:15.877Z,4.47
2023-06-04T20:44:42.661Z,4.80
2023-06-04T20:47:09.395Z,5.50
2023-06-04T20:49:36.109Z,4.70
2023-06-04T20:52:02.961Z,4.40
2023-06-04T20:54:29.622Z,4.50
2023-06-04T20:56:57.530Z,4.32
2023-06-04T20:59:24.254Z,4.40
2023-06-04T21:01:51.901Z,5.03
2023-06-04T21:04:18.875Z,4.70
2023-06-04T21:06:45.877Z,4.32
2023-06-04T21:09:12.538Z,5.00
2023-06-04T21:11:39.238Z,4.82
2023-06-04T21:14:05.938Z,4.93
2023-06-04T21:16:32.844Z,4.55
2023-06-04T21:18:59.520Z,5.10
2023-06-04T21:21:28.577Z,4.18
2023-06-04T21:23:57.374Z,5.00
2023-06-04T21:26:24.172Z,4.78
2023-06-04T21:28:50.954Z,4.75
2023-06-04T21:31:17.670Z,4.43
2023-06-04T21:33:44.415Z,4.35
2023-06-04T21:36:14.938Z,4.53
2023-06-04T21:38:42.239Z,4.40
2023-06-04T21:41:09.412Z,4.95
2023-06-04T21:43:36.167Z,4.38
2023-06-04T21:46:06.064Z,4.95
2023-06-04T21:48:32.824Z,4.70
2023-06-04T21:50:59.888Z,4.93
2023-06-04T21:53:26.590Z,4.60
2023-06-04T21:55:53.289Z,4.05
2023-06-04T21:58:21.619Z,4.43
2023-06-04T22:00:48.945Z,4.78
2023-06-04T22:03:16.875Z,4.60
2023-06-04T22:05:43.666Z,4.63
2023-06-04T22:08:10.479Z,4.88
2023-06-04T22:10:37.184Z,4.45
2023-06-04T22:13:03.876Z,4.30
2023-06-04T22:15:30.803Z,4.32
2023-06-04T22:18:00.639Z,4.90
2023-06-04T22:20:27.808Z,5.03
2023-06-04T22:22:54.590Z,4.72
2023-06-04T22:25:21.451Z,4.50
2023-06-04T22:27:48.193Z,4.22
2023-06-04T22:30:14.952Z,4.65
2023-06-04T22:32:41.736Z,4.45
2023-06-04T22:35:08.480Z,5.15
2023-06-04T22:37:35.439Z,5.10
2023-06-04T22:40:02.264Z,4.68
2023-06-04T22:42:28.976Z,4.53
2023-06-04T22:44:56.179Z,4.65
2023-06-04T22:47:22.868Z,4.65
2023-06-04T22:49:49.582Z,4.70
2023-06-04T22:52:16.261Z,5.20
2023-06-04T22:54:43.024Z,5.28
2023-06-04T22:57:09.708Z,5.00
2023-06-04T22:59:36.418Z,4.30
2023-06-04T23:02:03.230Z,4.43
2023-06-04T23:04:29.907Z,4.63
2023-06-04T23:06:56.602Z,4.20
2023-06-04T23:09:23.272Z,4.97
2023-06-04T23:11:50.493Z,5.40
2023-06-04T23:14:17.453Z,4.78
2023-06-04T23:16:44.251Z,4.65
2023-06-04T23:19:11.192Z,4.70
2023-06-04T23:21:38.286Z,4.80
2023-06-04T23:24:06.193Z,5.18
2023-06-04T23:26:32.923Z,4.60
2023-06-04T23:28:59.656Z,5.03
2023-06-04T23:31:26.369Z,4.85
2023-06-04T23:33:53.371Z,5.03
2023-06-04T23:36:20.069Z,4.40
2023-06-04T23:38:48.022Z,4.90
2023-06-04T23:41:14.762Z,4.80
2023-06-04T23:43:41.452Z,4.75
2023-06-04T23:46:08.249Z,4.57
2023-06-04T23:48:34.973Z,4.57
2023-06-04T23:51:01.629Z,4.70
2023-06-04T23:53:28.312Z,5.30
2023-06-04T23:55:54.973Z,4.68
2023-06-04T23:58:21.699Z,4.93
